sensor_id;sensor_type;location;lat;lon;timestamp;P1;durP1;ratioP1;P2;durP2;ratioP2
43182;SDS011;28802;38.578;-0.066;2022-11-18T00:00:55;2.70;;;1.10;;
43182;SDS011;28802;38.578;-0.066;2022-11-18T00:03:22;1.83;;;0.60;;
43182;SDS011;28802;38.578;-0.066;2022-11-18T00:05:55;1.40;;;0.33;;
43182;SDS011;28802;38.578;-0.066;2022-11-18T00:08:21;2.10;;;0.90;;
43182;SDS011;28802;38.578;-0.066;2022-11-18T00:10:48;2.40;;;0.60;;
43182;SDS011;28802;38.578;-0.066;2022-11-18T00:13:15;1.70;;;0.40;;
43182;SDS011;28802;38.578;-0.066;2022-11-18T00:16:09;1.80;;;0.50;;
43182;SDS011;28802;38.578;-0.066;2022-11-18T00:18:36;1.77;;;0.50;;
43182;SDS011;28802;38.578;-0.066;2022-11-18T00:21:04;2.10;;;0.60;;
43182;SDS011;28802;38.578;-0.066;2022-11-18T00:23:32;1.40;;;0.50;;
43182;SDS011;28802;38.578;-0.066;2022-11-18T00:26:04;1.23;;;0.47;;
43182;SDS011;28802;38.578;-0.066;2022-11-18T00:28:35;1.40;;;0.50;;
43182;SDS011;28802;38.578;-0.066;2022-11-18T00:31:06;2.27;;;0.60;;
43182;SDS011;28802;38.578;-0.066;2022-11-18T00:33:33;1.97;;;0.63;;
43182;SDS011;28802;38.578;-0.066;2022-11-18T00:36:01;3.30;;;0.73;;
43182;SDS011;28802;38.578;-0.066;2022-11-18T00:38:31;1.10;;;0.50;;
43182;SDS011;28802;38.578;-0.066;2022-11-18T00:41:00;3.40;;;0.60;;
43182;SDS011;28802;38.578;-0.066;2022-11-18T00:43:28;2.40;;;0.50;;
43182;SDS011;28802;38.578;-0.066;2022-11-18T00:45:55;2.07;;;0.57;;
43182;SDS011;28802;38.578;-0.066;2022-11-18T00:48:21;1.27;;;0.53;;
43182;SDS011;28802;38.578;-0.066;2022-11-18T00:50:48;1.47;;;0.60;;
43182;SDS011;28802;38.578;-0.066;2022-11-18T00:53:15;4.47;;;0.70;;
43182;SDS011;28802;38.578;-0.066;2022-11-18T00:55:42;1.30;;;0.30;;
43182;SDS011;28802;38.578;-0.066;2022-11-18T00:58:08;6.90;;;0.53;;
43182;SDS011;28802;38.578;-0.066;2022-11-18T01:00:39;1.50;;;0.40;;
43182;SDS011;28802;38.578;-0.066;2022-11-18T01:03:09;3.67;;;0.40;;
43182;SDS011;28802;38.578;-0.066;2022-11-18T01:05:36;1.93;;;0.53;;
43182;SDS011;28802;38.578;-0.066;2022-11-18T01:08:03;1.77;;;0.40;;
43182;SDS011;28802;38.578;-0.066;2022-11-18T01:10:30;3.57;;;0.60;;
43182;SDS011;28802;38.578;-0.066;2022-11-18T01:12:56;2.13;;;0.47;;
43182;SDS011;28802;38.578;-0.066;2022-11-18T01:15:42;5.57;;;0.50;;
43182;SDS011;28802;38.578;-0.066;2022-11-18T01:18:09;5.10;;;0.30;;
43182;SDS011;28802;38.578;-0.066;2022-11-18T01:20:35;3.37;;;0.70;;
43182;SDS011;28802;38.578;-0.066;2022-11-18T01:23:02;1.30;;;0.40;;
43182;SDS011;28802;38.578;-0.066;2022-11-18T01:25:28;1.47;;;0.67;;
43182;SDS011;28802;38.578;-0.066;2022-11-18T01:27:55;1.43;;;0.37;;
43182;SDS011;28802;38.578;-0.066;2022-11-18T01:30:21;1.13;;;0.50;;
43182;SDS011;28802;38.578;-0.066;2022-11-18T01:32:47;1.87;;;0.47;;
43182;SDS011;28802;38.578;-0.066;2022-11-18T01:35:13;1.27;;;0.40;;
43182;SDS011;28802;38.578;-0.066;2022-11-18T01:37:39;1.67;;;0.50;;
43182;SDS011;28802;38.578;-0.066;2022-11-18T01:40:06;1.33;;;0.47;;
43182;SDS011;28802;38.578;-0.066;2022-11-18T01:42:33;5.53;;;1.10;;
43182;SDS011;28802;38.578;-0.066;2022-11-18T01:47:44;1.97;;;0.40;;
43182;SDS011;28802;38.578;-0.066;2022-11-18T01:50:15;1.63;;;0.50;;
43182;SDS011;28802;38.578;-0.066;2022-11-18T01:52:44;1.73;;;0.40;;
43182;SDS011;28802;38.578;-0.066;2022-11-18T01:55:14;2.10;;;0.50;;
43182;SDS011;28802;38.578;-0.066;2022-11-18T01:57:43;1.30;;;0.30;;
43182;SDS011;28802;38.578;-0.066;2022-11-18T02:00:12;1.60;;;0.40;;
43182;SDS011;28802;38.578;-0.066;2022-11-18T02:02:38;2.03;;;0.40;;
43182;SDS011;28802;38.578;-0.066;2022-11-18T02:05:05;1.63;;;0.30;;
43182;SDS011;28802;38.578;-0.066;2022-11-18T02:07:33;4.53;;;0.30;;
43182;SDS011;28802;38.578;-0.066;2022-11-18T02:10:04;1.97;;;0.43;;
43182;SDS011;28802;38.578;-0.066;2022-11-18T02:12:31;1.00;;;0.30;;
43182;SDS011;28802;38.578;-0.066;2022-11-18T02:14:57;1.10;;;0.30;;
43182;SDS011;28802;38.578;-0.066;2022-11-18T02:17:34;3.53;;;0.37;;
43182;SDS011;28802;38.578;-0.066;2022-11-18T02:26:27;1.57;;;0.30;;
43182;SDS011;28802;38.578;-0.066;2022-11-18T02:29:19;0.90;;;0.20;;
43182;SDS011;28802;38.578;-0.066;2022-11-18T02:32:01;5.60;;;0.30;;
43182;SDS011;28802;38.578;-0.066;2022-11-18T02:40:28;0.87;;;0.20;;
43182;SDS011;28802;38.578;-0.066;2022-11-18T02:43:09;1.50;;;0.30;;
43182;SDS011;28802;38.578;-0.066;2022-11-18T02:45:42;0.83;;;0.20;;
43182;SDS011;28802;38.578;-0.066;2022-11-18T02:48:12;0.90;;;0.20;;
43182;SDS011;28802;38.578;-0.066;2022-11-18T02:50:40;1.00;;;0.20;;
43182;SDS011;28802;38.578;-0.066;2022-11-18T02:53:08;2.47;;;0.20;;
43182;SDS011;28802;38.578;-0.066;2022-11-18T02:55:37;0.90;;;0.20;;
43182;SDS011;28802;38.578;-0.066;2022-11-18T02:58:04;1.07;;;0.30;;
43182;SDS011;28802;38.578;-0.066;2022-11-18T03:00:32;1.27;;;0.30;;
43182;SDS011;28802;38.578;-0.066;2022-11-18T03:03:00;0.90;;;0.20;;
43182;SDS011;28802;38.578;-0.066;2022-11-18T03:08:40;3.00;;;0.33;;
43182;SDS011;28802;38.578;-0.066;2022-11-18T03:11:23;1.60;;;0.20;;
43182;SDS011;28802;38.578;-0.066;2022-11-18T03:16:28;1.10;;;0.30;;
43182;SDS011;28802;38.578;-0.066;2022-11-18T03:19:02;0.90;;;0.20;;
43182;SDS011;28802;38.578;-0.066;2022-11-18T03:21:35;0.90;;;0.20;;
43182;SDS011;28802;38.578;-0.066;2022-11-18T03:24:15;0.90;;;0.20;;
43182;SDS011;28802;38.578;-0.066;2022-11-18T03:26:53;0.90;;;0.20;;
43182;SDS011;28802;38.578;-0.066;2022-11-18T03:29:40;0.90;;;0.20;;
43182;SDS011;28802;38.578;-0.066;2022-11-18T03:32:13;1.00;;;0.20;;
43182;SDS011;28802;38.578;-0.066;2022-11-18T03:34:44;1.67;;;0.20;;
43182;SDS011;28802;38.578;-0.066;2022-11-18T03:37:15;2.53;;;0.30;;
43182;SDS011;28802;38.578;-0.066;2022-11-18T03:39:45;0.97;;;0.20;;
43182;SDS011;28802;38.578;-0.066;2022-11-18T03:44:53;1.00;;;0.20;;
43182;SDS011;28802;38.578;-0.066;2022-11-18T03:47:38;1.20;;;0.20;;
43182;SDS011;28802;38.578;-0.066;2022-11-18T03:50:25;1.60;;;0.20;;
43182;SDS011;28802;38.578;-0.066;2022-11-18T03:52:55;1.67;;;0.20;;
43182;SDS011;28802;38.578;-0.066;2022-11-18T03:55:26;1.47;;;0.20;;
43182;SDS011;28802;38.578;-0.066;2022-11-18T03:58:04;0.90;;;0.20;;
43182;SDS011;28802;38.578;-0.066;2022-11-18T04:00:42;1.20;;;0.30;;
43182;SDS011;28802;38.578;-0.066;2022-11-18T04:03:10;3.27;;;0.30;;
43182;SDS011;28802;38.578;-0.066;2022-11-18T04:05:38;0.97;;;0.23;;
43182;SDS011;28802;38.578;-0.066;2022-11-18T04:08:13;1.20;;;0.20;;
43182;SDS011;28802;38.578;-0.066;2022-11-18T04:10:53;3.03;;;0.20;;
43182;SDS011;28802;38.578;-0.066;2022-11-18T04:13:31;1.10;;;0.30;;
43182;SDS011;28802;38.578;-0.066;2022-11-18T04:16:00;1.37;;;0.20;;
43182;SDS011;28802;38.578;-0.066;2022-11-18T04:18:26;0.90;;;0.20;;
43182;SDS011;28802;38.578;-0.066;2022-11-18T04:20:52;3.27;;;0.20;;
43182;SDS011;28802;38.578;-0.066;2022-11-18T04:23:18;1.30;;;0.20;;
43182;SDS011;28802;38.578;-0.066;2022-11-18T04:25:44;1.00;;;0.20;;
43182;SDS011;28802;38.578;-0.066;2022-11-18T04:28:10;1.10;;;0.20;;
43182;SDS011;28802;38.578;-0.066;2022-11-18T04:30:36;1.00;;;0.20;;
43182;SDS011;28802;38.578;-0.066;2022-11-18T04:33:02;0.97;;;0.20;;
43182;SDS011;28802;38.578;-0.066;2022-11-18T04:35:28;0.90;;;0.20;;
43182;SDS011;28802;38.578;-0.066;2022-11-18T04:37:54;1.20;;;0.30;;
43182;SDS011;28802;38.578;-0.066;2022-11-18T04:40:20;1.00;;;0.20;;
43182;SDS011;28802;38.578;-0.066;2022-11-18T04:42:46;1.40;;;0.20;;
43182;SDS011;28802;38.578;-0.066;2022-11-18T04:45:11;1.30;;;0.40;;
43182;SDS011;28802;38.578;-0.066;2022-11-18T04:47:37;3.60;;;0.30;;
43182;SDS011;28802;38.578;-0.066;2022-11-18T04:50:03;1.30;;;0.20;;
43182;SDS011;28802;38.578;-0.066;2022-11-18T04:52:30;1.00;;;0.20;;
43182;SDS011;28802;38.578;-0.066;2022-11-18T04:54:55;1.00;;;0.30;;
43182;SDS011;28802;38.578;-0.066;2022-11-18T04:57:21;1.00;;;0.30;;
43182;SDS011;28802;38.578;-0.066;2022-11-18T04:59:47;2.43;;;0.53;;
43182;SDS011;28802;38.578;-0.066;2022-11-18T05:02:13;2.97;;;1.20;;
43182;SDS011;28802;38.578;-0.066;2022-11-18T05:04:39;10.63;;;3.77;;
43182;SDS011;28802;38.578;-0.066;2022-11-18T05:07:06;2.60;;;0.73;;
43182;SDS011;28802;38.578;-0.066;2022-11-18T05:09:32;1.20;;;0.30;;
43182;SDS011;28802;38.578;-0.066;2022-11-18T05:11:59;1.90;;;0.40;;
43182;SDS011;28802;38.578;-0.066;2022-11-18T05:14:44;2.37;;;0.53;;
43182;SDS011;28802;38.578;-0.066;2022-11-18T05:17:10;4.80;;;0.40;;
43182;SDS011;28802;38.578;-0.066;2022-11-18T05:19:37;7.93;;;1.03;;
43182;SDS011;28802;38.578;-0.066;2022-11-18T05:22:06;5.83;;;1.00;;
43182;SDS011;28802;38.578;-0.066;2022-11-18T05:24:32;9.10;;;3.37;;
43182;SDS011;28802;38.578;-0.066;2022-11-18T05:26:58;18.10;;;6.57;;
43182;SDS011;28802;38.578;-0.066;2022-11-18T05:29:24;18.97;;;8.50;;
43182;SDS011;28802;38.578;-0.066;2022-11-18T05:31:50;26.70;;;10.63;;
43182;SDS011;28802;38.578;-0.066;2022-11-18T05:34:16;21.13;;;9.60;;
43182;SDS011;28802;38.578;-0.066;2022-11-18T05:36:42;18.17;;;7.30;;
43182;SDS011;28802;38.578;-0.066;2022-11-18T05:39:08;12.10;;;4.40;;
43182;SDS011;28802;38.578;-0.066;2022-11-18T05:41:34;14.07;;;3.87;;
43182;SDS011;28802;38.578;-0.066;2022-11-18T05:44:19;13.27;;;3.70;;
43182;SDS011;28802;38.578;-0.066;2022-11-18T05:46:45;20.30;;;4.80;;
43182;SDS011;28802;38.578;-0.066;2022-11-18T05:49:10;16.97;;;5.20;;
43182;SDS011;28802;38.578;-0.066;2022-11-18T05:51:36;17.93;;;6.43;;
43182;SDS011;28802;38.578;-0.066;2022-11-18T05:54:03;16.40;;;5.03;;
43182;SDS011;28802;38.578;-0.066;2022-11-18T05:59:01;18.53;;;6.07;;
43182;SDS011;28802;38.578;-0.066;2022-11-18T06:01:29;12.80;;;3.83;;
43182;SDS011;28802;38.578;-0.066;2022-11-18T06:03:59;18.80;;;4.87;;
43182;SDS011;28802;38.578;-0.066;2022-11-18T06:06:27;21.03;;;8.07;;
43182;SDS011;28802;38.578;-0.066;2022-11-18T06:08:57;19.87;;;8.43;;
43182;SDS011;28802;38.578;-0.066;2022-11-18T06:11:30;24.43;;;8.40;;
43182;SDS011;28802;38.578;-0.066;2022-11-18T06:14:04;18.73;;;6.70;;
43182;SDS011;28802;38.578;-0.066;2022-11-18T06:16:41;24.73;;;6.00;;
43182;SDS011;28802;38.578;-0.066;2022-11-18T06:19:11;7.47;;;2.43;;
43182;SDS011;28802;38.578;-0.066;2022-11-18T06:21:37;10.67;;;1.67;;
43182;SDS011;28802;38.578;-0.066;2022-11-18T06:24:03;2.90;;;0.70;;
43182;SDS011;28802;38.578;-0.066;2022-11-18T06:26:29;12.93;;;1.27;;
43182;SDS011;28802;38.578;-0.066;2022-11-18T06:28:55;6.83;;;1.60;;
43182;SDS011;28802;38.578;-0.066;2022-11-18T06:31:22;6.97;;;0.60;;
43182;SDS011;28802;38.578;-0.066;2022-11-18T06:33:47;6.73;;;0.50;;
43182;SDS011;28802;38.578;-0.066;2022-11-18T06:36:13;4.87;;;0.70;;
43182;SDS011;28802;38.578;-0.066;2022-11-18T06:38:39;9.77;;;0.90;;
43182;SDS011;28802;38.578;-0.066;2022-11-18T06:41:05;3.20;;;0.70;;
43182;SDS011;28802;38.578;-0.066;2022-11-18T06:43:31;4.67;;;0.60;;
43182;SDS011;28802;38.578;-0.066;2022-11-18T06:46:03;7.47;;;1.27;;
43182;SDS011;28802;38.578;-0.066;2022-11-18T06:48:48;7.97;;;1.27;;
43182;SDS011;28802;38.578;-0.066;2022-11-18T06:51:15;3.93;;;0.93;;
43182;SDS011;28802;38.578;-0.066;2022-11-18T06:53:41;5.73;;;0.90;;
43182;SDS011;28802;38.578;-0.066;2022-11-18T06:56:08;13.50;;;0.97;;
43182;SDS011;28802;38.578;-0.066;2022-11-18T06:58:36;7.23;;;1.10;;
43182;SDS011;28802;38.578;-0.066;2022-11-18T07:01:09;7.87;;;1.20;;
43182;SDS011;28802;38.578;-0.066;2022-11-18T07:03:43;7.47;;;1.30;;
43182;SDS011;28802;38.578;-0.066;2022-11-18T07:06:11;6.60;;;1.27;;
43182;SDS011;28802;38.578;-0.066;2022-11-18T07:08:38;12.10;;;1.63;;
43182;SDS011;28802;38.578;-0.066;2022-11-18T07:11:06;7.23;;;1.13;;
43182;SDS011;28802;38.578;-0.066;2022-11-18T07:13:34;9.30;;;1.30;;
43182;SDS011;28802;38.578;-0.066;2022-11-18T07:16:04;4.83;;;1.00;;
43182;SDS011;28802;38.578;-0.066;2022-11-18T07:18:32;7.10;;;1.50;;
43182;SDS011;28802;38.578;-0.066;2022-11-18T07:21:03;4.30;;;0.80;;
43182;SDS011;28802;38.578;-0.066;2022-11-18T07:23:30;5.40;;;1.10;;
43182;SDS011;28802;38.578;-0.066;2022-11-18T07:25:57;5.90;;;0.80;;
43182;SDS011;28802;38.578;-0.066;2022-11-18T07:28:23;5.27;;;0.87;;
43182;SDS011;28802;38.578;-0.066;2022-11-18T07:30:50;5.60;;;0.60;;
43182;SDS011;28802;38.578;-0.066;2022-11-18T07:33:16;7.10;;;1.27;;
43182;SDS011;28802;38.578;-0.066;2022-11-18T07:35:42;9.67;;;1.13;;
43182;SDS011;28802;38.578;-0.066;2022-11-18T07:38:08;5.97;;;0.93;;
43182;SDS011;28802;38.578;-0.066;2022-11-18T07:40:34;10.23;;;1.93;;
43182;SDS011;28802;38.578;-0.066;2022-11-18T07:43:00;5.10;;;1.03;;
43182;SDS011;28802;38.578;-0.066;2022-11-18T07:45:26;6.63;;;1.17;;
43182;SDS011;28802;38.578;-0.066;2022-11-18T07:47:52;6.60;;;1.10;;
43182;SDS011;28802;38.578;-0.066;2022-11-18T07:50:17;9.90;;;1.37;;
43182;SDS011;28802;38.578;-0.066;2022-11-18T07:52:43;5.90;;;1.33;;
43182;SDS011;28802;38.578;-0.066;2022-11-18T07:55:09;4.30;;;1.00;;
43182;SDS011;28802;38.578;-0.066;2022-11-18T07:57:35;6.20;;;0.90;;
43182;SDS011;28802;38.578;-0.066;2022-11-18T08:00:01;2.80;;;0.83;;
43182;SDS011;28802;38.578;-0.066;2022-11-18T08:02:37;6.20;;;1.13;;
43182;SDS011;28802;38.578;-0.066;2022-11-18T08:05:03;7.77;;;0.70;;
43182;SDS011;28802;38.578;-0.066;2022-11-18T08:07:29;4.30;;;0.80;;
43182;SDS011;28802;38.578;-0.066;2022-11-18T08:09:55;5.50;;;1.03;;
43182;SDS011;28802;38.578;-0.066;2022-11-18T08:12:21;5.47;;;0.77;;
43182;SDS011;28802;38.578;-0.066;2022-11-18T08:14:47;4.60;;;0.70;;
43182;SDS011;28802;38.578;-0.066;2022-11-18T08:17:13;4.40;;;1.10;;
43182;SDS011;28802;38.578;-0.066;2022-11-18T08:19:38;8.13;;;1.47;;
43182;SDS011;28802;38.578;-0.066;2022-11-18T08:22:04;5.50;;;1.13;;
43182;SDS011;28802;38.578;-0.066;2022-11-18T08:24:30;6.70;;;0.60;;
43182;SDS011;28802;38.578;-0.066;2022-11-18T08:26:56;9.90;;;1.30;;
43182;SDS011;28802;38.578;-0.066;2022-11-18T08:29:22;8.27;;;1.50;;
43182;SDS011;28802;38.578;-0.066;2022-11-18T08:31:47;3.63;;;1.00;;
43182;SDS011;28802;38.578;-0.066;2022-11-18T08:34:13;3.97;;;0.73;;
43182;SDS011;28802;38.578;-0.066;2022-11-18T08:36:39;6.77;;;1.00;;
43182;SDS011;28802;38.578;-0.066;2022-11-18T08:39:06;4.60;;;0.93;;
43182;SDS011;28802;38.578;-0.066;2022-11-18T08:41:39;6.93;;;1.60;;
43182;SDS011;28802;38.578;-0.066;2022-11-18T08:44:08;6.50;;;1.70;;
43182;SDS011;28802;38.578;-0.066;2022-11-18T08:46:36;11.00;;;0.90;;
43182;SDS011;28802;38.578;-0.066;2022-11-18T08:49:02;6.57;;;0.90;;
43182;SDS011;28802;38.578;-0.066;2022-11-18T08:51:28;7.87;;;0.70;;
43182;SDS011;28802;38.578;-0.066;2022-11-18T08:53:54;7.63;;;1.53;;
43182;SDS011;28802;38.578;-0.066;2022-11-18T08:56:21;12.30;;;1.13;;
43182;SDS011;28802;38.578;-0.066;2022-11-18T08:58:48;6.20;;;1.60;;
43182;SDS011;28802;38.578;-0.066;2022-11-18T09:01:15;4.73;;;1.27;;
43182;SDS011;28802;38.578;-0.066;2022-11-18T09:03:41;4.70;;;1.30;;
43182;SDS011;28802;38.578;-0.066;2022-11-18T09:06:07;7.60;;;0.80;;
43182;SDS011;28802;38.578;-0.066;2022-11-18T09:08:34;4.87;;;0.67;;
43182;SDS011;28802;38.578;-0.066;2022-11-18T09:11:08;5.90;;;0.80;;
43182;SDS011;28802;38.578;-0.066;2022-11-18T09:13:35;4.97;;;0.77;;
43182;SDS011;28802;38.578;-0.066;2022-11-18T09:16:01;3.73;;;0.40;;
43182;SDS011;28802;38.578;-0.066;2022-11-18T09:18:28;3.17;;;0.60;;
43182;SDS011;28802;38.578;-0.066;2022-11-18T09:21:01;7.40;;;0.80;;
43182;SDS011;28802;38.578;-0.066;2022-11-18T09:23:32;9.90;;;0.57;;
43182;SDS011;28802;38.578;-0.066;2022-11-18T09:26:00;6.30;;;1.50;;
43182;SDS011;28802;38.578;-0.066;2022-11-18T09:28:28;12.73;;;1.20;;
43182;SDS011;28802;38.578;-0.066;2022-11-18T09:30:54;4.60;;;0.67;;
43182;SDS011;28802;38.578;-0.066;2022-11-18T09:33:20;6.80;;;0.97;;
43182;SDS011;28802;38.578;-0.066;2022-11-18T09:35:47;6.07;;;1.07;;
43182;SDS011;28802;38.578;-0.066;2022-11-18T09:38:13;7.87;;;1.53;;
43182;SDS011;28802;38.578;-0.066;2022-11-18T09:40:52;5.87;;;1.60;;
43182;SDS011;28802;38.578;-0.066;2022-11-18T09:43:40;4.27;;;1.07;;
43182;SDS011;28802;38.578;-0.066;2022-11-18T09:46:33;6.60;;;1.17;;
43182;SDS011;28802;38.578;-0.066;2022-11-18T09:49:10;4.73;;;0.80;;
43182;SDS011;28802;38.578;-0.066;2022-11-18T09:51:50;6.90;;;0.57;;
43182;SDS011;28802;38.578;-0.066;2022-11-18T09:54:21;8.13;;;1.13;;
43182;SDS011;28802;38.578;-0.066;2022-11-18T09:56:49;6.57;;;1.03;;
43182;SDS011;28802;38.578;-0.066;2022-11-18T09:59:17;12.00;;;1.00;;
43182;SDS011;28802;38.578;-0.066;2022-11-18T10:01:45;8.37;;;1.73;;
43182;SDS011;28802;38.578;-0.066;2022-11-18T10:04:14;4.40;;;0.83;;
43182;SDS011;28802;38.578;-0.066;2022-11-18T10:06:42;5.13;;;0.77;;
43182;SDS011;28802;38.578;-0.066;2022-11-18T10:25:18;5.03;;;0.77;;
43182;SDS011;28802;38.578;-0.066;2022-11-18T10:27:45;3.70;;;1.27;;
43182;SDS011;28802;38.578;-0.066;2022-11-18T10:30:30;12.67;;;2.73;;
43182;SDS011;28802;38.578;-0.066;2022-11-18T10:35:41;2.90;;;0.70;;
43182;SDS011;28802;38.578;-0.066;2022-11-18T10:40:42;9.57;;;1.63;;
43182;SDS011;28802;38.578;-0.066;2022-11-18T10:46:23;20.50;;;7.10;;
43182;SDS011;28802;38.578;-0.066;2022-11-18T10:51:33;3.03;;;0.83;;
43182;SDS011;28802;38.578;-0.066;2022-11-18T10:54:19;3.60;;;0.50;;
43182;SDS011;28802;38.578;-0.066;2022-11-18T11:01:56;8.13;;;1.20;;
43182;SDS011;28802;38.578;-0.066;2022-11-18T11:04:43;5.10;;;0.83;;
43182;SDS011;28802;38.578;-0.066;2022-11-18T11:07:25;18.17;;;2.20;;
43182;SDS011;28802;38.578;-0.066;2022-11-18T11:12:41;11.30;;;1.10;;
43182;SDS011;28802;38.578;-0.066;2022-11-18T11:15:42;8.23;;;1.27;;
43182;SDS011;28802;38.578;-0.066;2022-11-18T11:18:13;7.23;;;0.50;;
43182;SDS011;28802;38.578;-0.066;2022-11-18T11:21:17;7.33;;;1.67;;
43182;SDS011;28802;38.578;-0.066;2022-11-18T11:23:46;6.80;;;1.07;;
43182;SDS011;28802;38.578;-0.066;2022-11-18T11:26:33;7.23;;;1.17;;
43182;SDS011;28802;38.578;-0.066;2022-11-18T11:34:45;5.57;;;1.30;;
43182;SDS011;28802;38.578;-0.066;2022-11-18T11:37:28;4.73;;;1.10;;
43182;SDS011;28802;38.578;-0.066;2022-11-18T11:51:50;6.10;;;1.40;;
43182;SDS011;28802;38.578;-0.066;2022-11-18T11:59:58;7.83;;;1.30;;
43182;SDS011;28802;38.578;-0.066;2022-11-18T12:05:29;14.67;;;2.90;;
43182;SDS011;28802;38.578;-0.066;2022-11-18T12:08:03;9.53;;;1.83;;
43182;SDS011;28802;38.578;-0.066;2022-11-18T12:13:56;7.40;;;1.70;;
43182;SDS011;28802;38.578;-0.066;2022-11-18T12:16:44;7.23;;;1.30;;
43182;SDS011;28802;38.578;-0.066;2022-11-18T12:19:19;7.73;;;1.17;;
43182;SDS011;28802;38.578;-0.066;2022-11-18T12:21:57;4.37;;;0.50;;
43182;SDS011;28802;38.578;-0.066;2022-11-18T12:59:28;7.97;;;1.30;;
43182;SDS011;28802;38.578;-0.066;2022-11-18T13:23:29;4.93;;;0.97;;
43182;SDS011;28802;38.578;-0.066;2022-11-18T13:26:37;7.83;;;1.13;;
43182;SDS011;28802;38.578;-0.066;2022-11-18T13:31:59;8.90;;;1.43;;
43182;SDS011;28802;38.578;-0.066;2022-11-18T13:34:51;9.57;;;3.60;;
43182;SDS011;28802;38.578;-0.066;2022-11-18T13:37:26;6.60;;;1.27;;
43182;SDS011;28802;38.578;-0.066;2022-11-18T13:39:54;4.03;;;0.90;;
43182;SDS011;28802;38.578;-0.066;2022-11-18T13:42:21;7.00;;;1.77;;
43182;SDS011;28802;38.578;-0.066;2022-11-18T13:44:52;6.10;;;1.57;;
43182;SDS011;28802;38.578;-0.066;2022-11-18T13:52:37;6.40;;;0.97;;
43182;SDS011;28802;38.578;-0.066;2022-11-18T13:55:29;2.10;;;0.60;;
43182;SDS011;28802;38.578;-0.066;2022-11-18T13:58:02;4.50;;;0.70;;
43182;SDS011;28802;38.578;-0.066;2022-11-18T14:00:31;8.00;;;1.73;;
43182;SDS011;28802;38.578;-0.066;2022-11-18T14:03:01;6.13;;;1.10;;
43182;SDS011;28802;38.578;-0.066;2022-11-18T14:05:30;5.40;;;1.30;;
43182;SDS011;28802;38.578;-0.066;2022-11-18T14:08:17;5.30;;;1.00;;
43182;SDS011;28802;38.578;-0.066;2022-11-18T14:10:49;10.37;;;1.50;;
43182;SDS011;28802;38.578;-0.066;2022-11-18T14:16:00;4.53;;;1.20;;
43182;SDS011;28802;38.578;-0.066;2022-11-18T14:18:47;3.40;;;0.90;;
43182;SDS011;28802;38.578;-0.066;2022-11-18T14:21:14;6.17;;;1.60;;
43182;SDS011;28802;38.578;-0.066;2022-11-18T14:23:53;7.93;;;1.93;;
43182;SDS011;28802;38.578;-0.066;2022-11-18T14:26:25;3.47;;;1.10;;
43182;SDS011;28802;38.578;-0.066;2022-11-18T14:29:00;5.40;;;1.50;;
43182;SDS011;28802;38.578;-0.066;2022-11-18T14:31:38;6.57;;;1.60;;
43182;SDS011;28802;38.578;-0.066;2022-11-18T14:36:50;9.50;;;1.50;;
43182;SDS011;28802;38.578;-0.066;2022-11-18T14:39:21;6.73;;;1.27;;
43182;SDS011;28802;38.578;-0.066;2022-11-18T14:41:52;7.07;;;1.40;;
43182;SDS011;28802;38.578;-0.066;2022-11-18T14:44:19;7.30;;;1.70;;
43182;SDS011;28802;38.578;-0.066;2022-11-18T14:46:48;9.53;;;2.17;;
43182;SDS011;28802;38.578;-0.066;2022-11-18T14:49:17;10.90;;;1.77;;
43182;SDS011;28802;38.578;-0.066;2022-11-18T14:51:46;6.17;;;1.10;;
43182;SDS011;28802;38.578;-0.066;2022-11-18T14:54:13;8.90;;;2.10;;
43182;SDS011;28802;38.578;-0.066;2022-11-18T14:56:39;10.07;;;1.53;;
43182;SDS011;28802;38.578;-0.066;2022-11-18T14:59:09;3.87;;;1.23;;
43182;SDS011;28802;38.578;-0.066;2022-11-18T15:01:40;23.97;;;4.27;;
43182;SDS011;28802;38.578;-0.066;2022-11-18T15:04:06;10.80;;;2.27;;
43182;SDS011;28802;38.578;-0.066;2022-11-18T15:06:33;10.83;;;3.30;;
43182;SDS011;28802;38.578;-0.066;2022-11-18T15:08:59;11.80;;;2.57;;
43182;SDS011;28802;38.578;-0.066;2022-11-18T15:11:25;11.17;;;2.10;;
43182;SDS011;28802;38.578;-0.066;2022-11-18T15:13:51;5.57;;;0.97;;
43182;SDS011;28802;38.578;-0.066;2022-11-18T15:16:18;7.80;;;1.10;;
43182;SDS011;28802;38.578;-0.066;2022-11-18T15:18:47;5.80;;;1.53;;
43182;SDS011;28802;38.578;-0.066;2022-11-18T15:21:15;8.90;;;1.93;;
43182;SDS011;28802;38.578;-0.066;2022-11-18T15:23:42;9.43;;;1.63;;
43182;SDS011;28802;38.578;-0.066;2022-11-18T15:26:24;6.03;;;1.40;;
43182;SDS011;28802;38.578;-0.066;2022-11-18T15:28:53;12.03;;;2.83;;
43182;SDS011;28802;38.578;-0.066;2022-11-18T15:31:21;9.67;;;1.47;;
43182;SDS011;28802;38.578;-0.066;2022-11-18T15:33:48;5.40;;;1.00;;
43182;SDS011;28802;38.578;-0.066;2022-11-18T15:36:19;8.90;;;1.20;;
43182;SDS011;28802;38.578;-0.066;2022-11-18T15:38:46;12.03;;;1.40;;
43182;SDS011;28802;38.578;-0.066;2022-11-18T15:41:17;5.70;;;1.03;;
43182;SDS011;28802;38.578;-0.066;2022-11-18T15:43:46;5.43;;;0.63;;
43182;SDS011;28802;38.578;-0.066;2022-11-18T15:46:13;8.30;;;1.23;;
43182;SDS011;28802;38.578;-0.066;2022-11-18T15:48:40;3.70;;;0.80;;
43182;SDS011;28802;38.578;-0.066;2022-11-18T15:51:07;5.47;;;1.13;;
43182;SDS011;28802;38.578;-0.066;2022-11-18T15:53:33;4.37;;;0.60;;
43182;SDS011;28802;38.578;-0.066;2022-11-18T15:58:44;6.03;;;0.70;;
43182;SDS011;28802;38.578;-0.066;2022-11-18T16:01:15;5.70;;;0.73;;
43182;SDS011;28802;38.578;-0.066;2022-11-18T16:03:41;6.40;;;1.10;;
43182;SDS011;28802;38.578;-0.066;2022-11-18T16:06:07;7.10;;;0.80;;
43182;SDS011;28802;38.578;-0.066;2022-11-18T16:08:33;5.67;;;0.90;;
43182;SDS011;28802;38.578;-0.066;2022-11-18T16:10:59;8.93;;;0.80;;
43182;SDS011;28802;38.578;-0.066;2022-11-18T16:13:43;10.13;;;1.40;;
43182;SDS011;28802;38.578;-0.066;2022-11-18T16:16:19;5.83;;;1.23;;
43182;SDS011;28802;38.578;-0.066;2022-11-18T16:18:46;4.00;;;0.70;;
43182;SDS011;28802;38.578;-0.066;2022-11-18T16:21:12;4.37;;;0.73;;
43182;SDS011;28802;38.578;-0.066;2022-11-18T16:23:38;6.90;;;0.80;;
43182;SDS011;28802;38.578;-0.066;2022-11-18T16:26:04;12.50;;;1.00;;
43182;SDS011;28802;38.578;-0.066;2022-11-18T16:28:30;6.00;;;0.70;;
43182;SDS011;28802;38.578;-0.066;2022-11-18T16:30:55;11.40;;;1.93;;
43182;SDS011;28802;38.578;-0.066;2022-11-18T16:33:40;4.10;;;1.10;;
43182;SDS011;28802;38.578;-0.066;2022-11-18T16:36:06;7.57;;;1.23;;
43182;SDS011;28802;38.578;-0.066;2022-11-18T16:38:32;5.87;;;1.37;;
43182;SDS011;28802;38.578;-0.066;2022-11-18T16:40:58;8.40;;;1.37;;
43182;SDS011;28802;38.578;-0.066;2022-11-18T16:43:24;4.97;;;1.27;;
43182;SDS011;28802;38.578;-0.066;2022-11-18T16:45:51;5.93;;;1.53;;
43182;SDS011;28802;38.578;-0.066;2022-11-18T16:48:19;11.10;;;4.00;;
43182;SDS011;28802;38.578;-0.066;2022-11-18T16:53:51;4.67;;;1.10;;
43182;SDS011;28802;38.578;-0.066;2022-11-18T16:56:19;5.17;;;1.03;;
43182;SDS011;28802;38.578;-0.066;2022-11-18T16:58:47;5.23;;;1.40;;
43182;SDS011;28802;38.578;-0.066;2022-11-18T17:01:13;5.60;;;1.60;;
43182;SDS011;28802;38.578;-0.066;2022-11-18T17:03:39;9.77;;;1.30;;
43182;SDS011;28802;38.578;-0.066;2022-11-18T17:06:07;8.20;;;1.50;;
43182;SDS011;28802;38.578;-0.066;2022-11-18T17:08:34;10.67;;;1.90;;
43182;SDS011;28802;38.578;-0.066;2022-11-18T17:11:07;4.93;;;1.70;;
43182;SDS011;28802;38.578;-0.066;2022-11-18T17:13:34;8.60;;;1.37;;
43182;SDS011;28802;38.578;-0.066;2022-11-18T17:16:05;6.60;;;1.10;;
43182;SDS011;28802;38.578;-0.066;2022-11-18T17:18:36;4.90;;;0.90;;
43182;SDS011;28802;38.578;-0.066;2022-11-18T17:21:03;4.67;;;1.23;;
43182;SDS011;28802;38.578;-0.066;2022-11-18T17:23:30;13.77;;;1.87;;
43182;SDS011;28802;38.578;-0.066;2022-11-18T17:25:56;12.20;;;2.97;;
43182;SDS011;28802;38.578;-0.066;2022-11-18T17:28:22;15.57;;;1.77;;
43182;SDS011;28802;38.578;-0.066;2022-11-18T17:30:48;6.63;;;1.07;;
43182;SDS011;28802;38.578;-0.066;2022-11-18T17:33:15;5.23;;;1.10;;
43182;SDS011;28802;38.578;-0.066;2022-11-18T17:35:40;4.07;;;1.00;;